createdAt,value
2023-04-01T00:00:57.618Z,3.70
2023-04-01T00:03:24.907Z,3.50
2023-04-01T00:05:51.680Z,4.03
2023-04-01T00:08:18.474Z,4.20
2023-04-01T00:10:45.533Z,3.00
2023-04-01T00:13:12.251Z,3.80
2023-04-01T00:15:39.086Z,2.90
2023-04-01T00:18:07.499Z,3.10
2023-04-01T00:20:34.432Z,2.78
2023-04-01T00:23:01.587Z,3.63
2023-04-01T00:25:28.353Z,3.50
2023-04-01T00:27:56.480Z,2.80
2023-04-01T00:30:23.388Z,3.20
2023-04-01T00:32:52.890Z,4.80
2023-04-01T00:35:19.767Z,3.60
2023-04-01T00:37:46.492Z,2.83
2023-04-01T00:42:49.990Z,2.95
2023-04-01T00:45:25.961Z,3.65
2023-04-01T00:47:52.833Z,3.55
2023-04-01T00:50:19.937Z,3.25
2023-04-01T01:02:36.751Z,2.80
2023-04-01T01:05:03.568Z,3.13
2023-04-01T01:07:42.348Z,2.45
2023-04-01T01:10:15.963Z,2.88
2023-04-01T01:12:48.907Z,3.55
2023-04-01T01:15:25.941Z,3.20
2023-04-01T01:18:02.441Z,2.50
2023-04-01T01:21:04.799Z,4.15
2023-04-01T01:23:31.424Z,3.88
2023-04-01T01:26:01.570Z,2.92
2023-04-01T01:38:34.942Z,3.42
2023-04-01T01:41:06.546Z,3.55
2023-04-01T01:43:35.590Z,3.97
2023-04-01T01:46:05.881Z,2.92
2023-04-01T01:48:33.478Z,3.67
2023-04-01T01:51:00.812Z,2.50
2023-04-01T01:53:27.590Z,3.17
2023-04-01T01:55:54.791Z,2.78
2023-04-01T02:05:47.330Z,4.03
2023-04-01T02:08:18.081Z,2.92
2023-04-01T02:10:48.418Z,2.92
2023-04-01T02:13:22.886Z,3.28
2023-04-01T02:18:17.296Z,3.17
2023-04-01T02:20:44.367Z,2.22
2023-04-01T02:23:11.614Z,2.58
2023-04-01T02:25:40.223Z,2.65
2023-04-01T02:28:08.059Z,2.50
2023-04-01T02:30:36.597Z,2.85
2023-04-01T02:33:04.361Z,3.20
2023-04-01T02:35:31.235Z,2.80
2023-04-01T02:37:58.154Z,2.60
2023-04-01T02:40:25.308Z,4.65
2023-04-01T02:42:52.211Z,2.88
2023-04-01T02:45:18.991Z,2.88
2023-04-01T02:47:45.807Z,3.05
2023-04-01T02:50:12.665Z,2.83
2023-04-01T02:52:39.290Z,2.58
2023-04-01T02:55:07.142Z,3.15
2023-04-01T02:57:34.015Z,2.90
2023-04-01T03:07:17.503Z,2.75
2023-04-01T03:09:44.339Z,2.88
2023-04-01T03:12:11.097Z,2.45
2023-04-01T03:14:37.698Z,2.40
2023-04-01T03:17:04.448Z,3.17
2023-04-01T03:19:31.101Z,2.85
2023-04-01T03:26:48.616Z,4.00
2023-04-01T03:31:42.500Z,2.70
2023-04-01T03:34:09.962Z,3.03
2023-04-01T03:36:36.735Z,2.38
2023-04-01T03:41:40.537Z,2.80
2023-04-01T03:44:07.544Z,3.05
2023-04-01T03:46:34.607Z,2.55
2023-04-01T03:49:01.371Z,3.38
2023-04-01T03:51:43.352Z,2.35
2023-04-01T03:54:10.290Z,2.42
2023-04-01T03:56:37.405Z,2.47
2023-04-01T03:59:05.347Z,2.45
2023-04-01T04:01:32.422Z,2.05
2023-04-01T04:04:00.361Z,2.67
2023-04-01T04:06:27.696Z,2.40
2023-04-01T04:08:54.669Z,2.90
2023-04-01T04:11:21.961Z,3.13
2023-04-01T04:13:50.885Z,3.22
2023-04-01T04:16:17.949Z,2.67
2023-04-01T04:18:48.912Z,2.50
2023-04-01T04:21:16.203Z,3.17
2023-04-01T04:31:01.553Z,2.75
2023-04-01T04:33:28.739Z,2.92
2023-04-01T04:35:56.588Z,3.78
2023-04-01T04:40:49.041Z,3.65
2023-04-01T04:43:16.192Z,3.00
2023-04-01T04:45:43.583Z,2.83
2023-04-01T04:48:14.098Z,3.90
2023-04-01T04:50:41.498Z,2.65
2023-04-01T04:53:10.494Z,3.00
2023-04-01T04:55:37.314Z,2.78
2023-04-01T05:00:47.823Z,3.53
2023-04-01T05:05:52.041Z,3.17
2023-04-01T05:08:18.917Z,2.50
2023-04-01T05:10:46.988Z,3.10
2023-04-01T05:13:13.804Z,3.00
2023-04-01T05:15:42.070Z,2.92
2023-04-01T05:32:42.181Z,3.60
2023-04-01T05:35:09.270Z,2.88
2023-04-01T05:37:36.325Z,4.35
2023-04-01T05:40:04.983Z,3.00
2023-04-01T05:42:31.660Z,3.30
2023-04-01T05:44:58.313Z,3.17
2023-04-01T05:47:24.993Z,2.95
2023-04-01T05:49:52.092Z,3.63
2023-04-01T05:55:00.828Z,3.33
2023-04-01T05:57:27.679Z,2.90
2023-04-01T05:59:54.503Z,3.47
2023-04-01T06:02:21.325Z,2.92
2023-04-01T06:04:48.048Z,3.15
2023-04-01T06:07:15.508Z,3.40
2023-04-01T06:09:42.612Z,3.30
2023-04-01T06:12:09.373Z,2.53
2023-04-01T06:14:58.808Z,3.97
2023-04-01T06:17:41.757Z,3.20
2023-04-01T06:20:08.716Z,3.33
2023-04-01T06:22:50.524Z,4.18
2023-04-01T06:32:56.690Z,3.72
2023-04-01T06:35:38.661Z,3.10
2023-04-01T06:38:18.597Z,3.05
2023-04-01T06:40:50.087Z,3.47
2023-04-01T06:43:16.759Z,3.90
2023-04-01T06:46:08.271Z,2.40
2023-04-01T06:49:05.672Z,2.47
2023-04-01T06:59:26.642Z,2.60
2023-04-01T07:06:56.811Z,2.80
2023-04-01T07:09:27.656Z,4.15
2023-04-01T07:12:17.262Z,3.10
2023-04-01T07:14:44.754Z,2.80
2023-04-01T07:17:27.491Z,2.83
2023-04-01T07:19:59.790Z,2.70
2023-04-01T07:22:32.421Z,2.85
2023-04-01T07:27:28.157Z,2.97
2023-04-01T07:29:57.314Z,2.58
2023-04-01T07:32:24.144Z,2.78
2023-04-01T07:35:04.145Z,2.00
2023-04-01T07:37:31.017Z,3.15
2023-04-01T07:40:04.862Z,2.72
2023-04-01T07:42:37.914Z,2.80
2023-04-01T07:45:10.825Z,2.90
2023-04-01T07:47:58.037Z,2.97
2023-04-01T08:03:40.312Z,2.13
2023-04-01T08:24:20.745Z,1.95
2023-04-01T08:37:06.854Z,2.20
2023-04-01T08:39:39.962Z,2.13
2023-04-01T08:42:15.871Z,2.85
2023-04-01T08:47:37.139Z,2.30
2023-04-01T08:57:42.643Z,2.55
2023-04-01T09:00:48.764Z,2.38
2023-04-01T09:08:39.655Z,2.17
2023-04-01T09:11:25.260Z,3.65
2023-04-01T09:16:24.114Z,2.00
2023-04-01T09:27:01.425Z,2.00
2023-04-01T09:29:34.543Z,2.40
2023-04-01T09:40:23.121Z,2.42
2023-04-01T09:53:48.639Z,2.90
2023-04-01T09:56:34.321Z,2.13
2023-04-01T10:04:13.318Z,2.03
2023-04-01T10:06:49.326Z,2.40
2023-04-01T10:09:30.605Z,1.80
2023-04-01T10:12:03.253Z,1.80
2023-04-01T10:17:52.029Z,2.30
2023-04-01T10:20:29.187Z,1.63
2023-04-01T10:23:09.990Z,1.60
2023-04-01T10:31:23.363Z,3.25
2023-04-01T10:33:56.690Z,1.90
2023-04-01T11:37:25.475Z,1.50
2023-04-01T12:43:46.102Z,1.50
2023-04-01T12:46:19.493Z,1.50
2023-04-01T12:54:02.077Z,1.63
2023-04-01T13:12:48.464Z,1.05
2023-04-01T13:15:16.414Z,1.20
2023-04-01T13:17:43.779Z,1.63
2023-04-01T13:22:39.913Z,1.33
2023-04-01T13:33:11.652Z,0.95
2023-04-01T13:35:41.894Z,2.08
2023-04-01T13:38:15.126Z,1.30
2023-04-01T13:48:34.677Z,1.88
2023-04-01T13:53:46.450Z,1.80
2023-04-01T14:11:33.408Z,1.40
2023-04-01T14:16:51.306Z,1.25
2023-04-01T14:19:38.922Z,0.80
2023-04-01T14:27:47.592Z,0.75
2023-04-01T14:30:21.679Z,0.80
2023-04-01T14:35:47.300Z,0.75
2023-04-01T14:41:04.903Z,1.20
2023-04-01T14:49:30.361Z,1.25
2023-04-01T15:15:05.337Z,0.88
2023-04-01T15:17:35.467Z,0.95
2023-04-01T15:28:20.672Z,0.88
2023-04-01T15:30:55.473Z,0.93
2023-04-01T15:33:28.663Z,1.25
2023-04-01T15:48:52.878Z,3.83
2023-04-01T16:09:52.293Z,1.15
2023-04-01T16:23:05.870Z,1.50
2023-04-01T16:25:46.676Z,1.95
2023-04-01T16:44:14.302Z,1.40
2023-04-01T16:47:01.821Z,1.42
2023-04-01T17:07:28.138Z,2.20
2023-04-01T17:17:44.291Z,2.35
2023-04-01T17:20:14.361Z,2.50
2023-04-01T17:37:50.525Z,2.90
2023-04-01T17:51:18.610Z,2.83
2023-04-01T17:53:52.336Z,5.07
2023-04-01T18:06:38.679Z,7.75
2023-04-01T18:09:08.827Z,8.93
2023-04-01T18:11:36.407Z,7.30
2023-04-01T18:14:12.889Z,6.60
2023-04-01T18:16:55.496Z,9.77
2023-04-01T18:19:27.687Z,8.05
2023-04-01T18:21:56.950Z,4.25
2023-04-01T18:35:21.090Z,3.53
2023-04-01T18:40:27.575Z,3.10
2023-04-01T18:42:54.847Z,1.83
2023-04-01T18:47:50.382Z,3.70
2023-04-01T18:50:26.746Z,8.05
2023-04-01T18:52:59.040Z,6.45
2023-04-01T18:55:32.412Z,3.80
2023-04-01T19:05:44.538Z,2.88
2023-04-01T19:13:19.480Z,2.95
2023-04-01T19:18:49.723Z,6.15
2023-04-01T19:26:30.661Z,7.45
2023-04-01T19:29:06.073Z,5.20
2023-04-01T19:31:36.439Z,9.23
2023-04-01T19:34:03.549Z,4.95
2023-04-01T19:36:43.035Z,2.70
2023-04-01T19:39:19.641Z,4.53
2023-04-01T19:44:36.813Z,5.43
2023-04-01T19:49:49.184Z,5.60
2023-04-01T19:52:25.179Z,4.00
2023-04-01T19:54:59.163Z,4.00
2023-04-01T20:02:38.928Z,3.90
2023-04-01T20:05:19.583Z,5.57
2023-04-01T20:20:29.688Z,4.70
2023-04-01T20:23:01.007Z,3.83
2023-04-01T20:25:48.132Z,3.45
2023-04-01T20:28:21.337Z,3.83
2023-04-01T20:36:07.542Z,3.80
2023-04-01T20:38:53.321Z,3.40
2023-04-01T20:52:12.585Z,3.40
2023-04-01T20:54:39.779Z,4.40
2023-04-01T21:49:10.110Z,5.07
2023-04-01T21:51:56.671Z,5.55
2023-04-01T22:21:06.551Z,6.10
2023-04-01T22:23:56.236Z,6.03
2023-04-01T23:18:37.967Z,7.55
2023-04-01T23:23:58.627Z,7.72
2023-04-01T23:33:55.776Z,7.47
2023-04-01T23:36:23.292Z,7.60
2023-04-01T23:38:50.979Z,7.25
2023-04-01T23:46:26.430Z,8.20
2023-04-01T23:48:54.219Z,8.63
2023-04-01T23:54:01.540Z,8.38
